Time;durP1;ratioP1;P1;durP2;ratioP2;P2;SDS_P1;SDS_P2;PMS_P1;PMS_P2;Temp;Humidity;BMP_temperature;BMP_pressure;BME280_temperature;BME280_humidity;BME280_pressure;Samples;Min_cycle;Max_cycle;Signal;HPM_P1;HPM_P2
2021/11/17 02:25:50;;;;;;;6.40;4.72;;;5.50;99.90;;;;;;5113902;28;20222;-81
2021/11/17 02:28:55;;;;;;;6.25;4.15;;;5.40;99.90;;;;;;5114064;28;20205;-81
2021/11/17 02:31:45;;;;;;;8.27;4.43;;;5.60;99.90;;;;;;5105276;28;20668;-81
2021/11/17 02:34:37;;;;;;;5.50;4.30;;;5.50;99.90;;;;;;5094477;28;20268;-82
2021/11/17 02:37:26;;;;;;;5.55;4.30;;;5.60;99.90;;;;;;5093327;28;20195;-81
2021/11/17 02:40:37;;;;;;;7.13;5.20;;;5.10;99.90;;;;;;5093502;28;20238;-82
2021/11/17 02:43:22;;;;;;;9.20;5.88;;;5.50;99.90;;;;;;5090702;28;20274;-82
2021/11/17 02:46:06;;;;;;;10.35;5.47;;;5.50;99.90;;;;;;5093128;28;20222;-82
2021/11/17 02:48:54;;;;;;;7.88;5.20;;;5.40;99.90;;;;;;5092463;28;20260;-82
2021/11/17 02:51:37;;;;;;;7.47;5.03;;;5.50;99.90;;;;;;5092916;28;20210;-82
2021/11/17 02:54:26;;;;;;;7.65;5.25;;;5.40;99.90;;;;;;5093369;28;20551;-82
2021/11/17 02:57:08;;;;;;;6.20;5.10;;;5.30;99.90;;;;;;5092321;28;20202;-82
2021/11/17 02:59:55;;;;;;;5.97;5.30;;;5.50;99.90;;;;;;5093132;28;20230;-82
2021/11/17 03:02:46;;;;;;;6.35;5.03;;;5.50;99.90;;;;;;5092241;28;20207;-82
2021/11/17 03:05:38;;;;;;;8.18;4.95;;;5.60;99.90;;;;;;5092486;28;20224;-82
2021/11/17 03:08:22;;;;;;;7.15;5.13;;;5.50;99.90;;;;;;5092815;28;20672;-82
2021/11/17 03:11:13;;;;;;;8.80;5.88;;;5.10;99.90;;;;;;5092310;28;20233;-82
2021/11/17 03:13:59;;;;;;;10.25;6.40;;;5.40;99.90;;;;;;5092419;28;20234;-82
2021/11/17 03:16:50;;;;;;;10.50;6.00;;;5.40;99.90;;;;;;5091698;28;20263;-82
2021/11/17 03:19:31;;;;;;;6.90;5.13;;;5.40;99.90;;;;;;5092589;28;20238;-82
2021/11/17 03:22:25;;;;;;;7.90;5.55;;;5.40;99.90;;;;;;5091509;28;20285;-81
2021/11/17 03:25:14;;;;;;;8.55;5.93;;;5.40;99.90;;;;;;5092478;28;20314;-81
2021/11/17 03:27:54;;;;;;;10.10;6.53;;;5.50;99.90;;;;;;5092621;28;20230;-81
2021/11/17 03:30:38;;;;;;;8.82;5.80;;;5.20;99.90;;;;;;5091398;28;20293;-81
2021/11/17 03:33:32;;;;;;;9.95;6.60;;;5.40;99.90;;;;;;5099698;28;20239;-81
2021/11/17 03:36:20;;;;;;;8.32;5.50;;;5.50;99.90;;;;;;5112738;28;20214;-81
2021/11/17 03:39:09;;;;;;;7.10;5.75;;;5.40;99.90;;;;;;5112415;28;20643;-82
2021/11/17 03:42:07;;;;;;;8.35;5.75;;;5.40;99.90;;;;;;5109437;28;20233;-81
2021/11/17 03:44:56;;;;;;;10.80;5.88;;;5.40;99.90;;;;;;5112642;28;20303;-81
2021/11/17 03:47:38;;;;;;;8.98;5.57;;;5.30;99.90;;;;;;5105425;28;20723;-82
2021/11/17 03:50:20;;;;;;;9.15;6.22;;;5.40;99.90;;;;;;5112096;28;20735;-81
2021/11/17 03:53:02;;;;;;;6.28;5.70;;;5.40;99.90;;;;;;5112308;28;20259;-82
2021/11/17 03:56:17;;;;;;;9.82;6.05;;;5.60;99.90;;;;;;5112242;28;20229;-81
2021/11/17 03:59:01;;;;;;;6.80;5.30;;;5.30;99.90;;;;;;5068757;28;20338;-82
2021/11/17 04:01:49;;;;;;;9.75;6.70;;;5.40;99.90;;;;;;5111293;28;20202;-82
2021/11/17 04:04:32;;;;;;;6.22;5.07;;;5.30;99.90;;;;;;5111965;28;20223;-82
2021/11/17 04:07:16;;;;;;;6.60;4.78;;;5.20;99.90;;;;;;5112264;28;20678;-81
2021/11/17 04:09:56;;;;;;;6.85;5.97;;;6.20;99.90;;;;;;5112440;28;20202;-81
2021/11/17 04:12:39;;;;;;;8.45;5.75;;;5.30;99.90;;;;;;5111703;28;20293;-81
2021/11/17 04:15:23;;;;;;;7.30;4.90;;;5.20;99.90;;;;;;5111140;28;20296;-81
2021/11/17 04:17:59;;;;;;;6.93;5.22;;;5.20;99.90;;;;;;5111681;28;20599;-82
2021/11/17 04:20:43;;;;;;;5.22;4.18;;;5.50;99.90;;;;;;5110914;28;20271;-81
2021/11/17 04:23:33;;;;;;;10.70;4.57;;;5.30;99.90;;;;;;5111967;28;20620;-82
2021/11/17 04:26:15;;;;;;;9.43;6.20;;;5.20;99.90;;;;;;5111677;28;20261;-81
2021/11/17 04:29:05;;;;;;;6.40;4.80;;;5.40;99.90;;;;;;5111334;28;20206;-82
2021/11/17 04:31:54;;;;;;;7.30;4.65;;;5.30;99.90;;;;;;5110927;28;20293;-81
2021/11/17 04:34:57;;;;;;;6.05;5.00;;;5.30;99.90;;;;;;5093000;28;20195;-82
2021/11/17 04:37:54;;;;;;;6.85;4.95;;;5.20;99.90;;;;;;5091522;27;20210;-81
2021/11/17 04:40:56;;;;;;;7.03;5.25;;;5.30;99.90;;;;;;5090593;28;20234;-81
2021/11/17 04:43:59;;;;;;;5.50;4.15;;;5.40;99.90;;;;;;5083390;28;20306;-81
2021/11/17 04:46:39;;;;;;;5.30;4.07;;;5.80;99.90;;;;;;5091153;28;20260;-81
2021/11/17 04:49:40;;;;;;;4.95;3.85;;;5.40;99.90;;;;;;5090564;28;20246;-81
2021/11/17 04:52:25;;;;;;;6.63;4.68;;;5.70;99.90;;;;;;5069743;28;20246;-82
2021/11/17 04:55:25;;;;;;;6.57;4.72;;;5.20;99.90;;;;;;5090752;28;20241;-81
2021/11/17 04:58:24;;;;;;;5.43;4.40;;;5.00;99.90;;;;;;5090443;28;20273;-81
2021/11/17 05:01:24;;;;;;;6.20;4.40;;;5.10;99.90;;;;;;5069920;28;20300;-81
2021/11/17 05:04:07;;;;;;;5.25;4.57;;;5.20;99.90;;;;;;5084870;28;20623;-81
2021/11/17 05:06:50;;;;;;;6.82;4.78;;;5.00;99.90;;;;;;5090761;28;20249;-81
2021/11/17 05:09:26;;;;;;;6.13;4.93;;;6.90;99.90;;;;;;5090978;28;20199;-81
2021/11/17 05:12:07;;;;;;;7.32;4.35;;;5.70;99.90;;;;;;5090082;28;20234;-81
2021/11/17 05:14:42;;;;;;;8.13;5.10;;;5.30;99.90;;;;;;5089114;28;20230;-81
2021/11/17 05:17:27;;;;;;;5.22;4.45;;;5.30;99.90;;;;;;5090540;28;20239;-81
2021/11/17 05:20:03;;;;;;;5.55;4.43;;;5.40;99.90;;;;;;5090066;28;20202;-81
2021/11/17 05:22:43;;;;;;;6.90;5.72;;;5.40;99.90;;;;;;5090327;28;20286;-81
2021/11/17 05:25:24;;;;;;;6.95;5.15;;;5.30;99.90;;;;;;5090702;28;20759;-81
2021/11/17 05:28:07;;;;;;;5.60;4.65;;;5.80;99.90;;;;;;5090535;28;20245;-81
2021/11/17 05:30:48;;;;;;;5.35;4.20;;;5.50;99.90;;;;;;5089615;28;20633;-82
2021/11/17 05:33:28;;;;;;;6.57;5.35;;;5.40;99.90;;;;;;5098711;28;20218;-81
2021/11/17 05:36:11;;;;;;;6.45;5.60;;;4.60;99.90;;;;;;5110545;28;20206;-81
2021/11/17 05:39:00;;;;;;;8.32;5.13;;;5.40;99.90;;;;;;5110914;28;20272;-81
2021/11/17 05:41:39;;;;;;;7.28;5.57;;;5.40;99.90;;;;;;5109579;28;20252;-82
2021/11/17 05:44:30;;;;;;;10.00;5.82;;;5.30;99.90;;;;;;5110528;28;20228;-81
2021/11/17 05:47:13;;;;;;;7.25;4.85;;;5.50;99.90;;;;;;5110845;28;20245;-81
2021/11/17 05:49:51;;;;;;;7.38;4.97;;;5.30;99.90;;;;;;5110574;28;20241;-82
2021/11/17 05:52:40;;;;;;;5.78;4.30;;;5.30;99.90;;;;;;5110125;28;20254;-81
2021/11/17 05:55:31;;;;;;;6.30;4.88;;;5.30;99.90;;;;;;5110578;28;20205;-81
2021/11/17 05:58:11;;;;;;;7.50;5.50;;;5.20;99.90;;;;;;5110451;28;20297;-82
2021/11/17 06:01:10;;;;;;;7.55;5.13;;;5.30;99.90;;;;;;5110018;28;20289;-81
2021/11/17 06:04:00;;;;;;;8.52;6.45;;;5.30;99.90;;;;;;5110090;28;20241;-83
2021/11/17 06:06:27;;;;;;;6.95;5.15;;;;;;;;;;5109825;28;20230;-83
2021/11/17 06:08:55;;;;;;;7.25;4.85;;;5.30;99.90;;;;;;5110731;28;20255;-82
2021/11/17 06:11:27;;;;;;;5.63;5.03;;;5.10;99.90;;;;;;5109901;28;20263;-83
2021/11/17 06:13:57;;;;;;;7.45;5.13;;;5.20;99.90;;;;;;5110541;28;20245;-83
2021/11/17 06:16:24;;;;;;;7.43;5.28;;;5.20;99.90;;;;;;5109590;28;20289;-83
2021/11/17 06:18:53;;;;;;;7.28;4.70;;;5.40;99.90;;;;;;5110316;28;20275;-83
2021/11/17 06:21:20;;;;;;;5.25;4.28;;;;;;;;;;5109544;28;20202;-83
2021/11/17 06:23:50;;;;;;;6.72;5.22;;;5.20;99.90;;;;;;5110324;28;20226;-83
2021/11/17 06:26:21;;;;;;;6.97;5.68;;;5.10;99.90;;;;;;5110346;28;20254;-83
2021/11/17 06:28:53;;;;;;;9.80;5.22;;;5.00;99.90;;;;;;5110479;28;20210;-83
2021/11/17 06:31:20;;;;;;;8.15;5.18;;;;;;;;;;5109394;28;20203;-83
2021/11/17 06:33:47;;;;;;;8.50;5.65;;;5.10;99.90;;;;;;5096115;28;20703;-83
2021/11/17 06:36:16;;;;;;;7.53;4.95;;;5.20;99.90;;;;;;5089603;28;20202;-83
2021/11/17 06:38:43;;;;;;;6.43;5.35;;;5.30;99.90;;;;;;5090115;28;20195;-83
2021/11/17 06:41:10;;;;;;;8.90;4.97;;;4.80;99.90;;;;;;5094969;28;20606;-83
2021/11/17 06:43:37;;;;;;;6.82;5.10;;;5.20;99.90;;;;;;5110204;28;20229;-83
2021/11/17 06:46:05;;;;;;;7.63;5.38;;;5.10;99.90;;;;;;5109356;28;20679;-83
2021/11/17 06:48:34;;;;;;;6.20;5.22;;;;;;;;;;5109979;28;20242;-83
2021/11/17 06:51:02;;;;;;;6.85;4.95;;;5.20;99.90;;;;;;5112309;28;20202;-83
2021/11/17 06:53:30;;;;;;;8.05;5.38;;;5.20;99.90;;;;;;5113765;28;20194;-83
2021/11/17 06:55:59;;;;;;;5.30;4.05;;;5.20;99.90;;;;;;5113528;28;20205;-83
2021/11/17 06:58:27;;;;;;;6.68;5.00;;;5.10;99.90;;;;;;5113549;28;20202;-83
2021/11/17 07:00:55;;;;;;;6.20;4.85;;;5.20;99.90;;;;;;5112928;28;20549;-83
2021/11/17 07:03:26;;;;;;;6.07;4.10;;;5.20;99.90;;;;;;5113671;28;20194;-83
2021/11/17 07:05:54;;;;;;;5.00;4.45;;;5.30;99.90;;;;;;5112506;28;20248;-82
2021/11/17 07:08:23;;;;;;;7.10;4.45;;;;;;;;;;5111744;28;20644;-82
2021/11/17 07:10:50;;;;;;;7.28;5.00;;;5.70;99.90;;;;;;5111777;28;20281;-82
2021/11/17 07:13:18;;;;;;;6.10;4.75;;;5.40;99.90;;;;;;5112597;28;20255;-82
2021/11/17 07:15:45;;;;;;;7.40;4.65;;;;;;;;;;5112255;28;20229;-82
2021/11/17 07:18:12;;;;;;;6.18;4.35;;;5.40;99.90;;;;;;5113203;28;20247;-82
2021/11/17 07:20:41;;;;;;;5.40;4.10;;;;;;;;;;5112423;28;20598;-82
2021/11/17 07:23:09;;;;;;;4.20;3.80;;;5.10;99.90;;;;;;5112870;28;20202;-82
2021/11/17 07:25:36;;;;;;;6.30;4.40;;;;;;;;;;5112716;27;20275;-82
2021/11/17 07:28:03;;;;;;;8.73;5.10;;;;;;;;;;5112803;28;20262;-82
2021/11/17 07:30:34;;;;;;;5.97;4.88;;;5.20;99.90;;;;;;5111987;28;20655;-82
2021/11/17 07:33:02;;;;;;;5.05;3.53;;;;;;;;;;5105908;28;20625;-82
2021/11/17 07:35:31;;;;;;;5.45;4.32;;;5.40;99.90;;;;;;5092266;28;20226;-82
2021/11/17 07:38:02;;;;;;;10.95;4.25;;;5.20;99.90;;;;;;5092600;28;20221;-82
2021/11/17 07:40:30;;;;;;;7.68;4.00;;;5.20;99.90;;;;;;5091358;28;20451;-82
2021/11/17 07:42:57;;;;;;;6.60;4.80;;;;;;;;;;5112708;28;20206;-81
2021/11/17 07:45:24;;;;;;;6.25;4.47;;;;;;;;;;5112477;28;20220;-82
2021/11/17 07:47:52;;;;;;;5.10;4.50;;;6.50;99.90;;;;;;5112622;28;20612;-81
2021/11/17 07:50:20;;;;;;;5.63;4.13;;;5.10;99.90;;;;;;5111687;27;20262;-81
2021/11/17 07:52:47;;;;;;;6.38;4.28;;;5.70;99.90;;;;;;5112139;28;20602;-81
2021/11/17 07:55:17;;;;;;;5.72;3.97;;;5.20;99.90;;;;;;5112148;28;20711;-81
2021/11/17 07:57:47;;;;;;;6.80;5.07;;;5.20;99.90;;;;;;5112446;28;20265;-82
2021/11/17 08:00:19;;;;;;;5.50;4.00;;;5.10;99.90;;;;;;5111592;28;20202;-82
2021/11/17 08:02:46;;;;;;;8.32;4.50;;;;;;;;;;5111044;28;20202;-82
2021/11/17 08:05:15;;;;;;;6.25;4.32;;;5.10;99.90;;;;;;5111523;28;20202;-82
2021/11/17 08:07:42;;;;;;;4.35;3.92;;;5.10;99.90;;;;;;5112149;28;20603;-82
2021/11/17 08:10:13;;;;;;;9.10;4.30;;;5.10;99.90;;;;;;5111824;28;20281;-82
2021/11/17 08:12:41;;;;;;;5.85;4.40;;;;;;;;;;5111757;28;20210;-82
2021/11/17 08:15:09;;;;;;;8.55;5.32;;;;;;;;;;5111031;28;20236;-83
2021/11/17 08:17:38;;;;;;;5.53;4.45;;;;;;;;;;5111936;28;20599;-82
2021/11/17 08:20:06;;;;;;;11.15;4.90;;;5.20;99.90;;;;;;5111390;28;20238;-82
2021/11/17 08:22:34;;;;;;;6.85;4.75;;;;;;;;;;5111494;28;20683;-83
2021/11/17 08:25:00;;;;;;;6.80;4.50;;;4.60;99.90;;;;;;5111584;28;20270;-83
2021/11/17 08:27:28;;;;;;;9.30;4.32;;;;;;;;;;5111719;28;20239;-83
2021/11/17 08:29:58;;;;;;;7.70;5.25;;;;;;;;;;5111610;28;20225;-82
2021/11/17 08:32:25;;;;;;;6.45;4.30;;;;;;;;;;5110175;28;20209;-83
2021/11/17 08:34:53;;;;;;;5.72;3.85;;;5.30;99.90;;;;;;5111544;28;20198;-82
2021/11/17 08:37:21;;;;;;;5.45;4.22;;;5.40;99.90;;;;;;5111297;28;20268;-82
2021/11/17 08:39:50;;;;;;;5.88;3.80;;;;;;;;;;5111517;28;20198;-83
2021/11/17 08:42:18;;;;;;;6.65;5.00;;;5.40;99.90;;;;;;5110703;28;20201;-82
2021/11/17 08:44:45;;;;;;;5.78;4.57;;;;;;;;;;5111109;28;20210;-82
2021/11/17 08:47:16;;;;;;;6.45;3.80;;;5.30;99.90;;;;;;5111325;28;20261;-83
2021/11/17 08:49:43;;;;;;;8.75;3.72;;;;;;;;;;5111390;28;20209;-82
2021/11/17 08:52:11;;;;;;;3.63;2.88;;;5.50;99.90;;;;;;5110979;28;20202;-83
2021/11/17 08:54:39;;;;;;;5.13;3.40;;;5.30;99.90;;;;;;5110951;28;20198;-83
2021/11/17 08:57:07;;;;;;;5.57;3.50;;;5.30;99.90;;;;;;5111329;28;20263;-83
2021/11/17 08:59:34;;;;;;;5.50;3.42;;;5.10;99.90;;;;;;5110599;28;20579;-83
2021/11/17 09:02:02;;;;;;;3.55;2.90;;;5.20;99.90;;;;;;5110235;28;20202;-84
2021/11/17 09:04:31;;;;;;;4.57;3.72;;;;;;;;;;5110932;28;20614;-84
2021/11/17 09:07:00;;;;;;;3.30;2.60;;;;;;;;;;5110866;28;20229;-84
2021/11/17 09:09:27;;;;;;;3.70;2.72;;;;;;;;;;5110839;28;20217;-85
2021/11/17 09:11:54;;;;;;;3.80;3.28;;;;;;;;;;5109684;28;20614;-84
2021/11/17 09:14:22;;;;;;;6.30;3.35;;;;;;;;;;5110453;28;20208;-84
2021/11/17 09:16:49;;;;;;;3.55;3.20;;;;;;;;;;5110864;28;20245;-85
2021/11/17 09:19:17;;;;;;;3.88;3.33;;;5.40;99.90;;;;;;5111030;28;20194;-84
2021/11/17 09:21:47;;;;;;;13.65;3.28;;;5.30;99.90;;;;;;5110071;28;20626;-84
2021/11/17 09:24:15;;;;;;;5.47;3.55;;;;;;;;;;5110775;28;20201;-84
2021/11/17 09:26:43;;;;;;;5.32;3.15;;;5.30;99.90;;;;;;5110725;28;20692;-84
2021/11/17 09:29:11;;;;;;;2.90;2.45;;;5.30;99.90;;;;;;5111148;28;20206;-84
2021/11/17 09:31:41;;;;;;;2.67;2.35;;;5.10;99.90;;;;;;5110338;28;20273;-84
2021/11/17 09:34:09;;;;;;;2.75;2.40;;;5.00;99.90;;;;;;5094359;28;20247;-84
2021/11/17 09:36:38;;;;;;;2.55;2.05;;;5.00;99.90;;;;;;5090222;28;20283;-84
2021/11/17 09:39:11;;;;;;;3.17;2.47;;;5.00;99.90;;;;;;5089914;28;20223;-83
2021/11/17 09:41:41;;;;;;;1.90;1.70;;;5.00;99.90;;;;;;5099293;28;20683;-84
2021/11/17 09:44:14;;;;;;;2.50;1.80;;;5.00;99.90;;;;;;5110415;28;20244;-83
2021/11/17 09:46:44;;;;;;;2.22;2.03;;;5.10;99.90;;;;;;5110430;28;20229;-84
2021/11/17 09:49:28;;;;;;;2.40;2.13;;;4.90;99.90;;;;;;5110489;28;20206;-83
2021/11/17 09:51:58;;;;;;;2.33;1.67;;;5.00;99.90;;;;;;5109823;28;20198;-84
2021/11/17 09:54:29;;;;;;;2.20;2.05;;;4.20;99.90;;;;;;5110653;28;20625;-84
2021/11/17 09:56:58;;;;;;;1.80;1.70;;;5.10;99.90;;;;;;5110536;28;20227;-83
2021/11/17 09:59:27;;;;;;;1.60;1.50;;;5.00;99.90;;;;;;5112544;27;20278;-84
2021/11/17 10:01:59;;;;;;;2.40;2.03;;;5.00;99.90;;;;;;5126901;28;20201;-85
2021/11/17 10:04:30;;;;;;;1.63;1.52;;;4.90;99.90;;;;;;5104103;28;20201;-84
2021/11/17 10:10:06;;;;;;;2.03;1.77;;;5.10;99.90;;;;;;5099125;28;20221;-85
2021/11/17 10:12:57;;;;;;;2.90;1.98;;;4.90;99.90;;;;;;5110268;28;20194;-84
2021/11/17 10:15:27;;;;;;;1.85;1.75;;;4.90;99.90;;;;;;5110405;28;20194;-84
2021/11/17 10:17:57;;;;;;;4.75;2.42;;;4.90;99.90;;;;;;5109531;28;20659;-85
2021/11/17 10:20:33;;;;;;;2.40;2.20;;;5.00;99.90;;;;;;5110370;28;20203;-84
2021/11/17 10:23:20;;;;;;;2.60;2.40;;;5.10;99.90;;;;;;5110294;28;20293;-84
2021/11/17 10:25:54;;;;;;;3.55;1.80;;;5.20;99.90;;;;;;5113277;28;20209;-84
2021/11/17 10:28:33;;;;;;;3.72;1.83;;;5.00;99.90;;;;;;5114462;28;20658;-85
2021/11/17 10:31:10;;;;;;;1.95;1.75;;;5.50;99.90;;;;;;5113906;28;20200;-84
2021/11/17 10:33:58;;;;;;;3.08;2.05;;;5.00;99.90;;;;;;5114403;28;20281;-85
2021/11/17 10:36:29;;;;;;;3.60;2.45;;;5.00;99.90;;;;;;5114495;28;20213;-85
2021/11/17 10:39:12;;;;;;;3.20;2.47;;;4.30;99.90;;;;;;5114236;28;20202;-85
2021/11/17 10:41:52;;;;;;;1.88;1.67;;;5.20;99.90;;;;;;5103256;28;20204;-85
2021/11/17 10:44:35;;;;;;;3.95;1.90;;;5.20;99.90;;;;;;5093913;28;20198;-85
2021/11/17 10:47:11;;;;;;;2.22;1.65;;;5.20;99.90;;;;;;5093872;28;20275;-85
2021/11/17 10:49:48;;;;;;;3.55;2.28;;;5.40;99.90;;;;;;5093617;28;20255;-84
2021/11/17 10:52:24;;;;;;;2.42;1.75;;;5.30;99.90;;;;;;5093609;28;20264;-84
2021/11/17 10:54:54;;;;;;;1.95;1.65;;;5.30;99.90;;;;;;5093557;28;20199;-84
2021/11/17 10:57:24;;;;;;;2.40;2.08;;;5.60;99.90;;;;;;5093747;28;20609;-84
2021/11/17 10:59:53;;;;;;;2.33;2.13;;;5.60;99.90;;;;;;5093471;28;20233;-84
2021/11/17 11:02:22;;;;;;;1.90;1.80;;;5.60;99.90;;;;;;5092931;28;20238;-84
2021/11/17 11:04:52;;;;;;;2.47;2.25;;;5.50;99.90;;;;;;5093315;28;20648;-84
2021/11/17 11:07:23;;;;;;;2.47;2.10;;;5.50;99.90;;;;;;5093461;28;20234;-85
2021/11/17 11:09:54;;;;;;;2.00;1.90;;;5.50;99.90;;;;;;5093410;28;20199;-86
2021/11/17 11:12:26;;;;;;;3.03;2.15;;;5.20;99.90;;;;;;5093687;28;20195;-86
2021/11/17 11:14:56;;;;;;;1.80;1.70;;;5.40;99.90;;;;;;5093990;28;20199;-84
2021/11/17 11:17:31;;;;;;;2.28;2.08;;;5.50;99.90;;;;;;5121771;27;20203;-85
2021/11/17 11:20:35;;;;;;;2.85;2.30;;;5.60;99.90;;;;;;5113597;28;20250;-85
2021/11/17 11:23:27;;;;;;;1.42;1.30;;;5.70;99.90;;;;;;5106503;27;20218;-84
2021/11/17 11:26:04;;;;;;;1.58;1.48;;;5.80;99.90;;;;;;5119070;27;20274;-85
2021/11/17 11:28:37;;;;;;;2.92;2.65;;;5.70;99.90;;;;;;5133882;27;20197;-85
2021/11/17 11:31:24;;;;;;;1.92;1.45;;;;;;;;;;5133717;27;20236;-85
2021/11/17 11:34:31;;;;;;;1.80;1.70;;;5.50;99.90;;;;;;5119482;27;20194;-85
2021/11/17 11:36:59;;;;;;;1.85;1.75;;;5.50;99.90;;;;;;5113056;28;20289;-85
2021/11/17 11:39:48;;;;;;;2.95;1.45;;;5.60;99.90;;;;;;5113200;28;20256;-85
2021/11/17 11:42:50;;;;;;;1.27;1.17;;;5.60;99.90;;;;;;5113064;28;20199;-85
2021/11/17 11:45:54;;;;;;;1.55;1.45;;;5.50;99.90;;;;;;5112497;28;20213;-85
2021/11/17 11:49:05;;;;;;;1.65;1.55;;;5.60;99.90;;;;;;5112722;28;20706;-84
2021/11/17 11:52:04;;;;;;;1.33;1.23;;;5.50;99.90;;;;;;5091916;28;20257;-84
2021/11/17 11:54:48;;;;;;;1.50;1.40;;;6.00;99.90;;;;;;5087611;27;20235;-85
2021/11/17 11:57:26;;;;;;;1.42;1.33;;;5.40;99.90;;;;;;5110746;28;20737;-84
2021/11/17 11:59:59;;;;;;;0.82;0.80;;;5.40;99.90;;;;;;5112140;28;20191;-84
2021/11/17 12:02:29;;;;;;;1.17;1.08;;;5.60;99.90;;;;;;5111157;28;20678;-84
2021/11/17 12:04:59;;;;;;;1.58;1.33;;;5.50;99.90;;;;;;5111701;28;20667;-84
2021/11/17 12:07:29;;;;;;;2.25;1.63;;;5.50;99.90;;;;;;5101517;28;20222;-85
2021/11/17 12:10:01;;;;;;;1.30;1.08;;;5.40;99.90;;;;;;5091842;28;20219;-85
2021/11/17 12:12:31;;;;;;;1.40;1.30;;;5.70;99.90;;;;;;5091540;28;20227;-85
2021/11/17 12:15:16;;;;;;;3.65;1.75;;;5.60;99.60;;;;;;5095471;28;20596;-85
2021/11/17 12:17:46;;;;;;;1.60;1.50;;;5.60;99.90;;;;;;5112485;28;20608;-85
2021/11/17 12:20:25;;;;;;;2.00;1.80;;;5.70;99.90;;;;;;5112440;28;20194;-84
2021/11/17 12:22:56;;;;;;;1.77;1.50;;;5.60;99.90;;;;;;5112393;28;20197;-86
2021/11/17 12:25:27;;;;;;;2.00;1.70;;;5.60;99.90;;;;;;5104512;28;20653;-85
2021/11/17 12:27:58;;;;;;;2.50;1.80;;;5.50;99.90;;;;;;5091167;28;20215;-85
2021/11/17 12:30:40;;;;;;;1.65;1.55;;;5.80;99.90;;;;;;5091923;28;20210;-84
2021/11/17 12:33:16;;;;;;;2.03;1.92;;;5.30;99.90;;;;;;5098899;28;20224;-84
2021/11/17 12:35:46;;;;;;;4.05;2.03;;;4.90;99.90;;;;;;5091326;28;20642;-85
2021/11/17 12:38:16;;;;;;;1.55;1.45;;;5.30;99.90;;;;;;5091135;28;20195;-83
2021/11/17 12:40:48;;;;;;;1.50;1.40;;;5.20;99.90;;;;;;5093296;28;20195;-85
2021/11/17 12:43:34;;;;;;;2.22;1.52;;;5.20;99.90;;;;;;5110507;28;20206;-85
2021/11/17 12:46:08;;;;;;;2.25;1.40;;;5.90;99.90;;;;;;5091408;28;20194;-85
2021/11/17 12:48:42;;;;;;;2.60;1.65;;;5.30;99.90;;;;;;5090257;28;20238;-84
2021/11/17 12:51:13;;;;;;;1.67;1.58;;;5.40;99.90;;;;;;5091361;28;20241;-85
2021/11/17 12:53:42;;;;;;;1.42;1.33;;;5.40;99.90;;;;;;5092000;28;20225;-85
2021/11/17 12:56:17;;;;;;;1.30;1.20;;;5.40;99.90;;;;;;5091240;28;20233;-85
2021/11/17 12:58:51;;;;;;;1.52;1.42;;;5.40;99.90;;;;;;5091300;28;20230;-85
2021/11/17 13:01:24;;;;;;;1.70;1.60;;;5.50;99.90;;;;;;5090294;28;20289;-85
2021/11/17 13:04:19;;;;;;;2.20;2.00;;;5.50;99.90;;;;;;5096875;28;20601;-85
2021/11/17 13:06:52;;;;;;;2.25;1.80;;;5.60;99.90;;;;;;5111327;28;20205;-85
2021/11/17 13:09:23;;;;;;;2.15;1.77;;;5.50;99.90;;;;;;5111529;28;20202;-85
2021/11/17 13:11:54;;;;;;;2.03;1.92;;;5.50;99.90;;;;;;5111245;28;20490;-85
2021/11/17 13:14:28;;;;;;;1.40;1.30;;;5.50;99.90;;;;;;5101064;28;20222;-84
2021/11/17 13:17:03;;;;;;;1.73;1.58;;;5.50;99.90;;;;;;5091007;28;20201;-85
2021/11/17 13:19:33;;;;;;;1.65;1.55;;;5.50;99.90;;;;;;5090898;28;20199;-85
2021/11/17 13:22:04;;;;;;;1.77;1.65;;;5.60;99.90;;;;;;5090215;28;20293;-85
2021/11/17 13:24:37;;;;;;;2.50;2.30;;;5.40;99.90;;;;;;5101498;28;20197;-85
2021/11/17 13:27:40;;;;;;;1.15;0.93;;;5.40;99.90;;;;;;5111263;28;20218;-85
2021/11/17 13:30:34;;;;;;;3.45;1.80;;;5.30;99.90;;;;;;5108391;28;20210;-84
2021/11/17 13:33:27;;;;;;;1.13;1.13;;;5.30;99.90;;;;;;5104266;28;20588;-85
2021/11/17 13:36:09;;;;;;;1.40;1.30;;;5.40;99.90;;;;;;5109092;28;20198;-85
2021/11/17 13:38:37;;;;;;;1.42;1.33;;;5.40;99.90;;;;;;5110469;28;20694;-85
2021/11/17 13:41:08;;;;;;;2.45;1.30;;;5.40;99.90;;;;;;5105564;28;20227;-85
2021/11/17 13:43:38;;;;;;;2.25;1.52;;;5.20;99.90;;;;;;5092200;28;20206;-85
2021/11/17 13:46:08;;;;;;;3.15;1.45;;;5.40;99.90;;;;;;5110429;28;20213;-86
2021/11/17 13:48:39;;;;;;;1.48;1.30;;;5.50;99.90;;;;;;5110789;28;20241;-85
2021/11/17 13:51:08;;;;;;;1.35;1.25;;;;;;;;;;5110097;28;20219;-84
2021/11/17 13:53:35;;;;;;;2.05;1.73;;;5.40;99.90;;;;;;5108845;28;20648;-85
2021/11/17 13:56:06;;;;;;;2.33;1.85;;;5.30;99.90;;;;;;5090574;28;20668;-86
2021/11/17 13:58:34;;;;;;;1.80;1.70;;;5.40;99.90;;;;;;5090706;28;20640;-85
2021/11/17 14:01:02;;;;;;;3.15;1.88;;;4.90;99.90;;;;;;5093659;28;20199;-85
2021/11/17 14:03:30;;;;;;;2.65;2.45;;;;;;;;;;5094404;28;20298;-85
2021/11/17 14:05:59;;;;;;;2.20;1.85;;;5.60;99.90;;;;;;5114322;28;20640;-85
2021/11/17 14:08:28;;;;;;;2.67;2.45;;;;;;;;;;5115084;28;20234;-85
2021/11/17 14:10:55;;;;;;;2.95;2.00;;;;;;;;;;5114620;28;20198;-85
2021/11/17 14:13:22;;;;;;;2.05;1.80;;;;;;;;;;5114651;28;20284;-86
2021/11/17 14:15:50;;;;;;;3.22;2.38;;;5.80;99.90;;;;;;5114090;28;20202;-85
2021/11/17 14:18:17;;;;;;;2.92;2.35;;;;;;;;;;5114255;28;20206;-85
2021/11/17 14:20:46;;;;;;;3.85;2.30;;;5.30;99.90;;;;;;5114516;28;20221;-85
2021/11/17 14:23:13;;;;;;;2.63;2.38;;;5.50;99.90;;;;;;5114506;28;20194;-85
2021/11/17 14:25:44;;;;;;;2.03;1.85;;;5.50;99.90;;;;;;5095647;28;20226;-85
2021/11/17 14:28:16;;;;;;;6.38;3.83;;;5.60;99.90;;;;;;5094078;28;20218;-85
2021/11/17 14:30:55;;;;;;;7.60;6.22;;;5.40;99.90;;;;;;5093509;28;20203;-85
2021/11/17 14:33:25;;;;;;;5.68;4.78;;;5.50;99.90;;;;;;5103717;28;20705;-85
2021/11/17 14:35:54;;;;;;;3.13;2.85;;;5.60;99.90;;;;;;5113808;28;20226;-86
2021/11/17 14:38:21;;;;;;;4.00;3.60;;;5.70;99.90;;;;;;5114670;28;20622;-85
2021/11/17 14:40:52;;;;;;;7.25;5.68;;;5.60;99.90;;;;;;5113981;28;20240;-85
2021/11/17 14:43:22;;;;;;;6.53;4.72;;;5.10;99.90;;;;;;5113789;28;20563;-86
2021/11/17 14:45:49;;;;;;;5.03;3.30;;;5.40;99.90;;;;;;5094723;28;20640;-85
2021/11/17 14:48:17;;;;;;;49.90;30.25;;;5.40;99.90;;;;;;5093614;28;20783;-85
2021/11/17 14:50:44;;;;;;;31.13;18.23;;;7.00;99.90;;;;;;5093471;28;20234;-86
2021/11/17 14:53:12;;;;;;;12.75;10.75;;;5.50;99.90;;;;;;5093738;28;20300;-86
2021/11/17 14:55:40;;;;;;;3.80;3.50;;;;;;;;;;5110708;28;20226;-85
2021/11/17 14:58:09;;;;;;;4.28;3.60;;;5.50;99.90;;;;;;5114309;28;20205;-85
2021/11/17 15:00:38;;;;;;;5.85;2.58;;;5.80;99.90;;;;;;5113799;28;20218;-85
2021/11/17 15:03:06;;;;;;;2.90;2.70;;;5.50;99.90;;;;;;5114200;28;20186;-86
2021/11/17 15:05:34;;;;;;;5.90;4.95;;;5.60;99.90;;;;;;5096968;28;20287;-86
2021/11/17 15:08:01;;;;;;;5.28;4.70;;;;;;;;;;5093246;28;20247;-85
2021/11/17 15:10:29;;;;;;;5.93;5.40;;;;;;;;;;5092408;28;20203;-85
2021/11/17 15:12:56;;;;;;;4.50;4.10;;;;;;;;;;5093532;28;20605;-85
2021/11/17 15:15:27;;;;;;;4.40;3.97;;;5.40;99.90;;;;;;5099893;28;20561;-85
2021/11/17 15:17:55;;;;;;;4.15;3.42;;;5.40;99.90;;;;;;5093114;28;20660;-85
2021/11/17 15:20:22;;;;;;;5.00;3.38;;;;;;;;;;5093016;28;20723;-84
2021/11/17 15:22:50;;;;;;;2.70;2.50;;;6.20;99.90;;;;;;5092559;28;20223;-85
2021/11/17 15:25:21;;;;;;;3.28;2.97;;;5.50;99.90;;;;;;5093376;28;20198;-85
2021/11/17 15:27:51;;;;;;;3.60;3.10;;;5.60;99.90;;;;;;5092862;28;20219;-85
2021/11/17 15:30:21;;;;;;;3.33;2.90;;;5.40;99.90;;;;;;5092683;28;20200;-85
2021/11/17 15:32:52;;;;;;;3.38;2.92;;;5.50;99.90;;;;;;5097728;28;20190;-86
2021/11/17 15:35:21;;;;;;;7.13;5.53;;;4.10;99.90;;;;;;5111012;28;20214;-85
2021/11/17 15:37:50;;;;;;;7.13;6.43;;;5.40;99.90;;;;;;5113271;28;20289;-86
2021/11/17 15:40:19;;;;;;;5.25;4.47;;;5.60;99.90;;;;;;5112945;28;20198;-85
2021/11/17 15:42:48;;;;;;;4.85;2.85;;;5.50;99.90;;;;;;5093654;28;20199;-85
2021/11/17 15:45:17;;;;;;;4.15;3.20;;;5.40;99.90;;;;;;5105457;28;20263;-86
2021/11/17 15:47:44;;;;;;;6.70;6.00;;;5.00;99.90;;;;;;5112517;28;20275;-85
2021/11/17 15:50:15;;;;;;;6.05;4.40;;;5.50;99.90;;;;;;5112786;28;20226;-85
2021/11/17 15:52:43;;;;;;;4.07;3.67;;;;;;;;;;5113148;28;20206;-85
2021/11/17 15:55:12;;;;;;;15.45;14.25;;;5.50;99.90;;;;;;5100533;28;20191;-85
2021/11/17 15:57:39;;;;;;;6.57;5.95;;;5.50;99.90;;;;;;5092010;28;20550;-85
2021/11/17 16:00:09;;;;;;;3.80;3.20;;;5.50;99.90;;;;;;5091722;28;20679;-84
2021/11/17 16:02:36;;;;;;;6.80;3.90;;;5.50;99.90;;;;;;5092422;28;20264;-85
2021/11/17 16:05:04;;;;;;;7.05;4.05;;;5.70;99.90;;;;;;5102661;28;20289;-85
2021/11/17 16:07:33;;;;;;;4.10;3.53;;;;;;;;;;5112604;28;20315;-85
2021/11/17 16:10:00;;;;;;;4.25;3.67;;;5.40;99.90;;;;;;5111944;28;20247;-86
2021/11/17 16:12:28;;;;;;;5.95;5.50;;;5.60;99.90;;;;;;5111250;28;20244;-85
2021/11/17 16:14:56;;;;;;;4.82;4.43;;;5.30;99.90;;;;;;5102035;28;20244;-86
2021/11/17 16:17:24;;;;;;;4.70;3.95;;;5.60;99.90;;;;;;5092277;28;20714;-85
2021/11/17 16:19:52;;;;;;;4.53;3.35;;;;;;;;;;5092048;28;20264;-85
2021/11/17 16:22:26;;;;;;;6.13;4.85;;;5.60;99.90;;;;;;5091246;28;20207;-85